createdAt,value
2019-01-10T00:00:54.181Z,98322.52
2019-01-10T00:01:56.992Z,98318.48
2019-01-10T00:03:00.003Z,98322.20
2019-01-10T00:04:02.941Z,98316.28
2019-01-10T00:05:08.169Z,98322.20
2019-01-10T00:06:12.218Z,98319.24
2019-01-10T00:07:15.478Z,98319.23
2019-01-10T00:08:18.864Z,98319.23
2019-01-10T00:09:23.976Z,98322.97
2019-01-10T00:10:26.685Z,98327.22
2019-01-10T00:11:30.430Z,98326.94
2019-01-10T00:12:39.345Z,98330.67
2019-01-10T00:13:37.609Z,98330.67
2019-01-10T00:14:40.351Z,98327.75
2019-01-10T00:15:43.269Z,98329.07
2019-01-10T00:16:46.302Z,98326.61
2019-01-10T00:17:50.174Z,98327.17
2019-01-10T00:18:53.524Z,98330.67
2019-01-10T00:19:57.376Z,98329.30
2019-01-10T00:21:00.278Z,98329.30
2019-01-10T00:22:03.165Z,98331.73
2019-01-10T00:23:05.980Z,98331.73
2019-01-10T00:24:08.930Z,98336.55
2019-01-10T00:25:12.325Z,98336.55
2019-01-10T00:26:15.118Z,98330.88
2019-01-10T00:27:17.987Z,98330.59
2019-01-10T00:28:20.795Z,98339.49
2019-01-10T00:29:23.962Z,98335.95
2019-01-10T00:30:26.755Z,98341.53
2019-01-10T00:31:30.686Z,98340.44
2019-01-10T00:32:41.686Z,98340.44
2019-01-10T00:33:44.910Z,98347.19
2019-01-10T00:34:48.239Z,98343.98
2019-01-10T00:35:54.599Z,98343.98
2019-01-10T00:36:58.586Z,98353.08
2019-01-10T00:38:01.793Z,98353.33
2019-01-10T00:39:04.909Z,98353.33
2019-01-10T00:40:07.800Z,98353.89
2019-01-10T00:41:11.012Z,98348.80
2019-01-10T00:42:13.983Z,98350.69
2019-01-10T00:43:16.783Z,98350.69
2019-01-10T00:44:19.512Z,98360.61
2019-01-10T00:45:23.460Z,98360.89
2019-01-10T00:46:26.424Z,98364.36
2019-01-10T00:47:29.415Z,98364.36
2019-01-10T00:48:32.179Z,98357.14
2019-01-10T00:49:35.374Z,98371.13
2019-01-10T00:50:38.391Z,98368.20
2019-01-10T00:51:41.181Z,98367.70
2019-01-10T00:52:43.987Z,98371.98
2019-01-10T00:53:46.953Z,98368.19
2019-01-10T00:54:49.679Z,98361.77
2019-01-10T00:55:52.883Z,98376.87
2019-01-10T00:56:55.606Z,98375.05
2019-01-10T00:57:58.416Z,98384.44
2019-01-10T00:59:01.290Z,98367.18
2019-01-10T01:00:03.993Z,98376.09
2019-01-10T01:01:07.073Z,98373.41
2019-01-10T01:02:10.336Z,98380.12
2019-01-10T01:03:13.056Z,98373.17
2019-01-10T01:04:16.080Z,98369.13
2019-01-10T01:05:18.809Z,98373.42
2019-01-10T01:06:21.788Z,98375.81
2019-01-10T01:07:24.638Z,98379.36
2019-01-10T01:08:30.807Z,98381.75
2019-01-10T01:09:34.536Z,98372.06
2019-01-10T01:10:37.247Z,98382.80
2019-01-10T01:11:40.275Z,98381.75
2019-01-10T01:12:44.596Z,98384.97
2019-01-10T01:13:47.339Z,98380.96
2019-01-10T01:14:50.492Z,98383.39
2019-01-10T01:15:53.285Z,98392.78
2019-01-10T01:16:58.438Z,98393.81
2019-01-10T01:18:01.326Z,98385.80
2019-01-10T01:19:04.197Z,98392.50
2019-01-10T01:20:06.888Z,98394.61
2019-01-10T01:21:10.116Z,98391.38
2019-01-10T01:22:13.057Z,98394.03
2019-01-10T01:23:17.824Z,98396.72
2019-01-10T01:24:20.471Z,98396.72
2019-01-10T01:25:23.377Z,98396.22
2019-01-10T01:26:26.511Z,98401.03
2019-01-10T01:27:29.674Z,98401.03
2019-01-10T01:28:32.976Z,98398.16
2019-01-10T01:29:36.131Z,98398.16
2019-01-10T01:30:39.423Z,98402.39
2019-01-10T01:31:42.756Z,98404.86
2019-01-10T01:32:45.560Z,98404.86
2019-01-10T01:33:48.876Z,98411.33
2019-01-10T01:34:51.705Z,98404.88
2019-01-10T01:35:54.474Z,98409.98
2019-01-10T01:36:57.198Z,98406.76
2019-01-10T01:37:59.992Z,98411.84
2019-01-10T01:39:03.403Z,98411.84
2019-01-10T01:40:06.583Z,98411.02
2019-01-10T01:41:09.431Z,98412.59
2019-01-10T01:42:12.454Z,98418.79
2019-01-10T01:43:15.182Z,98416.66
2019-01-10T01:44:18.348Z,98407.73
2019-01-10T01:45:21.521Z,98420.38
2019-01-10T01:46:24.721Z,98420.36
2019-01-10T01:47:29.406Z,98412.02
2019-01-10T01:48:32.269Z,98421.01
2019-01-10T01:49:35.607Z,98417.80
2019-01-10T01:50:38.447Z,98419.65
2019-01-10T01:51:41.295Z,98422.08
2019-01-10T01:52:44.488Z,98414.05
2019-01-10T01:53:47.273Z,98419.41
2019-01-10T01:54:49.997Z,98427.92
2019-01-10T01:55:52.808Z,98420.12
2019-01-10T01:56:55.777Z,98420.12
2019-01-10T01:57:58.671Z,98410.22
2019-01-10T01:59:01.986Z,98410.22
2019-01-10T02:00:04.840Z,98426.03
2019-01-10T02:01:07.565Z,98423.89
2019-01-10T02:02:10.307Z,98421.78
2019-01-10T02:03:13.336Z,98425.03
2019-01-10T02:04:16.382Z,98427.43
2019-01-10T02:05:19.266Z,98433.55
2019-01-10T02:06:22.180Z,98435.72
2019-01-10T02:07:25.484Z,98435.72
2019-01-10T02:08:28.410Z,98430.14
2019-01-10T02:09:31.940Z,98440.61
2019-01-10T02:10:35.062Z,98435.22
2019-01-10T02:11:38.397Z,98446.80
2019-01-10T02:12:41.121Z,98434.92
2019-01-10T02:13:43.924Z,98443.84
2019-01-10T02:14:46.712Z,98445.17
2019-01-10T02:15:49.603Z,98451.36
2019-01-10T02:16:52.726Z,98449.72
2019-01-10T02:17:56.061Z,98459.41
2019-01-10T02:18:58.782Z,98455.65
2019-01-10T02:20:01.660Z,98455.37
2019-01-10T02:21:04.391Z,98455.09
2019-01-10T02:22:07.309Z,98450.25
2019-01-10T02:23:10.241Z,98456.41
2019-01-10T02:24:13.538Z,98453.52
2019-01-10T02:25:16.706Z,98456.94
2019-01-10T02:26:19.596Z,98460.36
2019-01-10T02:27:22.395Z,98460.36
2019-01-10T02:28:25.280Z,98466.59
2019-01-10T02:29:28.489Z,98464.97
2019-01-10T02:30:41.609Z,98466.02
2019-01-10T02:31:36.058Z,98464.97
2019-01-10T02:32:38.845Z,98467.09
2019-01-10T02:33:41.596Z,98463.09
2019-01-10T02:34:44.511Z,98468.48
2019-01-10T02:35:47.345Z,98469.28
2019-01-10T02:36:50.637Z,98469.28
2019-01-10T02:37:53.610Z,98470.38
2019-01-10T02:38:56.514Z,98469.32
2019-01-10T02:39:59.247Z,98474.14
2019-01-10T02:41:02.817Z,98470.09
2019-01-10T02:42:05.828Z,98471.45
2019-01-10T02:43:09.057Z,98468.72
2019-01-10T02:44:12.026Z,98475.98
2019-01-10T02:45:14.927Z,98480.52
2019-01-10T02:46:17.648Z,98474.84
2019-01-10T02:47:20.484Z,98478.09
2019-01-10T02:48:23.420Z,98474.66
2019-01-10T02:49:26.821Z,98474.66
2019-01-10T02:50:30.370Z,98476.02
2019-01-10T02:51:35.322Z,98476.23
2019-01-10T02:52:38.204Z,98483.43
2019-01-10T02:53:41.202Z,98485.09
2019-01-10T02:54:44.132Z,98480.56
2019-01-10T02:55:47.733Z,98480.56
2019-01-10T02:56:50.552Z,98483.77
2019-01-10T02:57:53.474Z,98484.81
2019-01-10T02:58:56.276Z,98484.81
2019-01-10T02:59:59.020Z,98481.61
2019-01-10T03:01:01.778Z,98481.55
2019-01-10T03:02:05.575Z,98479.98
2019-01-10T03:03:08.447Z,98480.56
2019-01-10T03:04:11.152Z,98476.30
2019-01-10T03:05:13.910Z,98485.66
2019-01-10T03:06:17.292Z,98474.89
2019-01-10T03:07:20.271Z,98478.13
2019-01-10T03:08:23.470Z,98478.69
2019-01-10T03:09:26.297Z,98476.54
2019-01-10T03:10:29.495Z,98475.41
2019-01-10T03:11:32.263Z,98479.70
2019-01-10T03:12:35.077Z,98476.01
2019-01-10T03:13:40.854Z,98468.27
2019-01-10T03:14:46.771Z,98472.55
2019-01-10T03:15:49.656Z,98465.81
2019-01-10T03:16:52.589Z,98472.28
2019-01-10T03:17:55.411Z,98475.50
2019-01-10T03:18:58.173Z,98470.33
2019-01-10T03:20:01.078Z,98480.77
2019-01-10T03:21:04.492Z,98477.03
2019-01-10T03:22:07.297Z,98478.39
2019-01-10T03:23:10.191Z,98478.41
2019-01-10T03:24:12.911Z,98471.45
2019-01-10T03:25:15.850Z,98471.45
2019-01-10T03:26:18.686Z,98475.20
2019-01-10T03:27:22.201Z,98470.66
2019-01-10T03:28:25.142Z,98477.34
2019-01-10T03:29:28.100Z,98478.39
2019-01-10T03:30:30.986Z,98479.42
2019-01-10T03:31:34.047Z,98480.73
2019-01-10T03:32:36.918Z,98477.83
2019-01-10T03:33:48.822Z,98476.48
2019-01-10T03:34:52.328Z,98475.70
2019-01-10T03:35:55.234Z,98478.94
2019-01-10T03:36:58.203Z,98478.11
2019-01-10T03:38:01.180Z,98480.77
2019-01-10T03:39:04.718Z,98486.41
2019-01-10T03:40:08.033Z,98485.33
2019-01-10T03:41:11.122Z,98483.47
2019-01-10T03:42:14.027Z,98481.63
2019-01-10T03:43:16.909Z,98477.84
2019-01-10T03:44:19.830Z,98480.30
2019-01-10T03:45:22.774Z,98473.05
2019-01-10T03:46:26.363Z,98473.61
2019-01-10T03:47:29.258Z,98477.05
2019-01-10T03:48:32.155Z,98475.41
2019-01-10T03:49:35.075Z,98475.41
2019-01-10T03:50:38.144Z,98474.63
2019-01-10T03:51:41.067Z,98478.63
2019-01-10T03:52:44.377Z,98485.84
2019-01-10T03:53:47.721Z,98474.27
2019-01-10T03:54:50.628Z,98480.69
2019-01-10T03:55:53.597Z,98483.13
2019-01-10T03:56:56.571Z,98481.77
2019-01-10T03:57:59.460Z,98485.52
2019-01-10T03:59:02.819Z,98485.30
2019-01-10T04:00:06.246Z,98486.95
2019-01-10T04:01:09.415Z,98484.55
2019-01-10T04:02:12.500Z,98484.55
2019-01-10T04:03:15.413Z,98485.87
2019-01-10T04:04:18.308Z,98488.81
2019-01-10T04:05:21.710Z,98488.02
2019-01-10T04:06:24.588Z,98481.25
2019-01-10T04:07:29.729Z,98481.25
2019-01-10T04:08:32.598Z,98484.17
2019-01-10T04:09:35.495Z,98486.33
2019-01-10T04:10:38.434Z,98490.84
2019-01-10T04:11:41.840Z,98490.84
2019-01-10T04:12:45.313Z,98488.14
2019-01-10T04:13:57.127Z,98486.27
2019-01-10T04:14:52.749Z,98491.94
2019-01-10T04:15:55.621Z,98489.02
2019-01-10T04:16:58.500Z,98490.87
2019-01-10T04:18:01.811Z,98487.09
2019-01-10T04:19:04.680Z,98488.69
2019-01-10T04:20:07.597Z,98485.12
2019-01-10T04:21:17.014Z,98485.45
2019-01-10T04:22:15.021Z,98486.48
2019-01-10T04:23:17.978Z,98487.59
2019-01-10T04:24:21.215Z,98482.55
2019-01-10T04:25:24.181Z,98483.33
2019-01-10T04:26:27.077Z,98487.84
2019-01-10T04:27:30.402Z,98487.84
2019-01-10T04:28:34.762Z,98481.79
2019-01-10T04:29:37.710Z,98475.33
2019-01-10T04:30:40.608Z,98472.56
2019-01-10T04:31:43.924Z,98472.56
2019-01-10T04:32:46.893Z,98485.66
2019-01-10T04:33:50.199Z,98493.97
2019-01-10T04:34:53.177Z,98493.94
2019-01-10T04:35:56.505Z,98494.72
2019-01-10T04:36:59.398Z,98490.72
2019-01-10T04:38:02.274Z,98494.77
2019-01-10T04:39:06.289Z,98488.34
2019-01-10T04:40:09.293Z,98492.13
2019-01-10T04:41:12.170Z,98492.13
2019-01-10T04:42:15.393Z,98501.16
2019-01-10T04:43:18.399Z,98501.16
2019-01-10T04:44:21.374Z,98496.38
2019-01-10T04:45:24.257Z,98501.17
2019-01-10T04:46:27.154Z,98500.66
2019-01-10T04:47:32.497Z,98504.16
2019-01-10T04:48:35.560Z,98501.44
2019-01-10T04:49:38.562Z,98501.70
2019-01-10T04:50:41.445Z,98501.72
2019-01-10T04:51:44.313Z,98506.82
2019-01-10T04:52:47.213Z,98506.82
2019-01-10T04:53:50.086Z,98509.76
2019-01-10T04:54:56.107Z,98511.85
2019-01-10T04:55:57.949Z,98513.78
2019-01-10T04:57:01.201Z,98512.09
2019-01-10T04:58:04.132Z,98512.39
2019-01-10T04:59:07.090Z,98512.39
2019-01-10T05:00:10.027Z,98512.39
2019-01-10T05:01:13.343Z,98510.72
2019-01-10T05:02:18.469Z,98511.24
2019-01-10T05:03:20.921Z,98516.50
2019-01-10T05:04:23.947Z,98520.28
2019-01-10T05:05:27.530Z,98518.41
2019-01-10T05:06:30.552Z,98521.87
2019-01-10T05:07:33.850Z,98518.69
2019-01-10T05:08:36.734Z,98520.00
2019-01-10T05:09:40.079Z,98520.00
2019-01-10T05:10:43.069Z,98527.03
2019-01-10T05:11:45.977Z,98524.87
2019-01-10T05:12:49.328Z,98525.17
2019-01-10T05:13:52.750Z,98522.03
2019-01-10T05:14:55.758Z,98522.03
2019-01-10T05:15:58.760Z,98517.97
2019-01-10T05:17:01.643Z,98518.81
2019-01-10T05:18:04.553Z,98520.74
2019-01-10T05:19:07.457Z,98520.74
2019-01-10T05:20:10.806Z,98517.00
2019-01-10T05:21:13.803Z,98514.58
2019-01-10T05:22:17.179Z,98516.77
2019-01-10T05:23:22.196Z,98519.75
2019-01-10T05:24:25.195Z,98519.75
2019-01-10T05:25:28.588Z,98518.55
2019-01-10T05:26:32.399Z,98518.55
2019-01-10T05:27:35.268Z,98518.02
2019-01-10T05:28:38.238Z,98520.13
2019-01-10T05:29:41.118Z,98521.20
2019-01-10T05:30:44.455Z,98521.20
2019-01-10T05:31:47.392Z,98520.13
2019-01-10T05:32:50.596Z,98521.16
2019-01-10T05:33:53.672Z,98518.48
2019-01-10T05:34:56.623Z,98519.33
2019-01-10T05:35:59.708Z,98519.33
2019-01-10T05:37:02.576Z,98517.49
2019-01-10T05:38:05.517Z,98524.50
2019-01-10T05:39:09.318Z,98525.27
2019-01-10T05:40:20.412Z,98526.64
2019-01-10T05:41:22.737Z,98521.23
2019-01-10T05:42:25.682Z,98522.31
2019-01-10T05:43:28.585Z,98522.31
2019-01-10T05:44:31.699Z,98528.66
2019-01-10T05:45:35.124Z,98531.05
2019-01-10T05:46:38.028Z,98521.67
2019-01-10T05:47:43.026Z,98532.70
2019-01-10T05:48:47.017Z,98534.86
2019-01-10T05:49:50.550Z,98530.92
2019-01-10T05:50:53.444Z,98535.24
2019-01-10T05:51:56.670Z,98530.87
2019-01-10T05:52:59.655Z,98531.10
2019-01-10T05:54:02.568Z,98539.91
2019-01-10T05:55:06.898Z,98533.96
2019-01-10T05:56:15.349Z,98527.55
2019-01-10T05:57:14.798Z,98533.50
2019-01-10T05:58:18.285Z,98533.81
2019-01-10T05:59:21.156Z,98531.36
2019-01-10T06:00:24.064Z,98532.98
2019-01-10T06:01:26.955Z,98532.98
2019-01-10T06:02:29.864Z,98530.33
2019-01-10T06:03:32.881Z,98534.11
2019-01-10T06:04:35.744Z,98534.11
2019-01-10T06:05:38.684Z,98537.02
2019-01-10T06:06:41.611Z,98536.46
2019-01-10T06:07:44.495Z,98536.97
2019-01-10T06:08:47.503Z,98535.63
2019-01-10T06:09:52.440Z,98535.63
2019-01-10T06:10:55.348Z,98539.19
2019-01-10T06:11:58.321Z,98538.58
2019-01-10T06:13:01.566Z,98538.31
2019-01-10T06:14:04.510Z,98542.92
2019-01-10T06:15:07.376Z,98542.92
2019-01-10T06:16:11.172Z,98541.64
2019-01-10T06:17:14.159Z,98544.81
2019-01-10T06:18:17.665Z,98547.49
2019-01-10T06:19:26.903Z,98545.61
2019-01-10T06:20:29.040Z,98547.44
2019-01-10T06:21:34.956Z,98547.44
2019-01-10T06:22:38.236Z,98540.74
2019-01-10T06:23:41.190Z,98542.83
2019-01-10T06:24:44.558Z,98546.59
2019-01-10T06:25:47.505Z,98546.89
2019-01-10T06:26:52.850Z,98547.18
2019-01-10T06:27:56.112Z,98549.23
2019-01-10T06:28:59.581Z,98548.75
2019-01-10T06:30:02.499Z,98558.98
2019-01-10T06:44:16.909Z,98565.67
2019-01-10T06:45:20.681Z,98565.59
2019-01-10T06:46:23.803Z,98571.22
2019-01-10T06:47:26.749Z,98573.38
2019-01-10T06:48:31.119Z,98570.70
2019-01-10T06:49:34.382Z,98569.36
2019-01-10T06:50:39.123Z,98564.86
2019-01-10T06:51:41.848Z,98571.30
2019-01-10T06:52:44.826Z,98573.45
2019-01-10T06:53:48.279Z,98564.55
2019-01-10T06:54:56.637Z,98564.55
2019-01-10T06:55:59.082Z,98565.88
2019-01-10T06:57:02.001Z,98569.30
2019-01-10T06:58:04.889Z,98569.30
2019-01-10T06:59:08.649Z,98564.74
2019-01-10T07:00:11.707Z,98570.39
2019-01-10T07:01:15.405Z,98570.39
2019-01-10T07:02:18.571Z,98564.49
2019-01-10T07:03:21.531Z,98573.55
2019-01-10T07:04:24.933Z,98573.55
2019-01-10T07:05:27.964Z,98573.27
2019-01-10T07:06:30.864Z,98573.27
2019-01-10T07:07:33.765Z,98577.89
2019-01-10T07:08:36.851Z,98581.25
2019-01-10T07:09:40.253Z,98581.25
2019-01-10T07:10:43.207Z,98582.96
2019-01-10T07:11:46.712Z,98582.96
2019-01-10T07:12:50.150Z,98586.46
2019-01-10T07:13:53.077Z,98586.64
2019-01-10T07:14:55.960Z,98586.41
2019-01-10T07:15:58.871Z,98585.30
2019-01-10T07:17:01.870Z,98590.17
2019-01-10T07:18:05.382Z,98586.15
2019-01-10T07:19:08.523Z,98586.15
2019-01-10T07:20:11.430Z,98590.20
2019-01-10T07:21:14.322Z,98588.83
2019-01-10T07:22:17.265Z,98594.24
2019-01-10T07:23:20.277Z,98594.24
2019-01-10T07:24:23.186Z,98595.84
2019-01-10T07:25:26.638Z,98599.55
2019-01-10T07:26:29.928Z,98596.33
2019-01-10T07:27:32.957Z,98600.60
2019-01-10T07:28:36.010Z,98600.60
2019-01-10T07:29:38.904Z,98601.82
2019-01-10T07:30:42.710Z,98601.94
2019-01-10T07:31:47.051Z,98601.94
2019-01-10T07:32:51.832Z,98607.14
2019-01-10T07:33:59.128Z,98607.14
2019-01-10T07:35:02.057Z,98603.70
2019-01-10T07:36:04.952Z,98609.89
2019-01-10T07:37:13.004Z,98609.89
2019-01-10T07:38:12.740Z,98609.95
2019-01-10T07:39:15.733Z,98612.02
2019-01-10T07:40:18.898Z,98612.02
2019-01-10T07:41:21.804Z,98614.48
2019-01-10T07:42:24.803Z,98615.34
2019-01-10T07:43:28.155Z,98608.83
2019-01-10T07:44:31.139Z,98611.28
2019-01-10T07:45:34.128Z,98614.25
2019-01-10T07:46:38.943Z,98612.31
2019-01-10T07:47:51.393Z,98613.36
2019-01-10T07:48:54.350Z,98620.69
2019-01-10T07:49:57.789Z,98615.91
2019-01-10T07:51:01.243Z,98618.84
2019-01-10T07:52:04.648Z,98619.36
2019-01-10T07:53:12.931Z,98616.67
2019-01-10T07:54:15.922Z,98619.66
2019-01-10T07:55:19.168Z,98623.66
2019-01-10T07:56:22.101Z,98616.10
2019-01-10T07:57:24.986Z,98622.95
2019-01-10T07:58:28.938Z,98624.28
2019-01-10T07:59:33.680Z,98624.28
2019-01-10T08:00:36.612Z,98618.30
2019-01-10T08:01:39.514Z,98626.11
2019-01-10T08:02:42.480Z,98626.11
2019-01-10T08:03:45.403Z,98622.06
2019-01-10T08:04:54.358Z,98626.59
2019-01-10T08:05:57.492Z,98633.52
2019-01-10T08:07:00.423Z,98631.60
2019-01-10T08:08:03.459Z,98631.60
2019-01-10T08:09:06.387Z,98634.66
2019-01-10T08:10:10.766Z,98634.66
2019-01-10T08:11:14.633Z,98644.32
2019-01-10T08:12:18.120Z,98640.08
2019-01-10T08:13:24.316Z,98640.08
2019-01-10T08:14:27.309Z,98644.89
2019-01-10T08:15:30.467Z,98640.08
2019-01-10T08:16:36.573Z,98642.25
2019-01-10T08:17:40.217Z,98638.23
2019-01-10T08:18:43.118Z,98638.23
2019-01-10T08:19:47.453Z,98643.67
2019-01-10T08:20:50.425Z,98643.67
2019-01-10T08:21:53.404Z,98646.01
2019-01-10T08:22:56.314Z,98639.02
2019-01-10T08:23:59.334Z,98641.12
2019-01-10T08:25:02.321Z,98642.25
2019-01-10T08:26:05.472Z,98647.28
2019-01-10T08:27:09.575Z,98649.00
2019-01-10T08:28:12.472Z,98647.15
2019-01-10T08:29:20.524Z,98645.78
2019-01-10T08:30:25.872Z,98645.78
2019-01-10T08:31:28.780Z,98645.78
2019-01-10T08:32:31.675Z,98643.95
2019-01-10T08:33:34.697Z,98640.99
2019-01-10T08:34:41.863Z,98640.99
2019-01-10T08:35:46.051Z,98642.02
2019-01-10T08:36:48.956Z,98642.02
2019-01-10T08:37:51.843Z,98638.23
2019-01-10T08:38:54.836Z,98641.64
2019-01-10T08:39:57.732Z,98647.77
2019-01-10T08:41:00.661Z,98638.02
2019-01-10T08:42:03.762Z,98654.84
2019-01-10T08:43:06.877Z,98641.20
2019-01-10T08:44:10.199Z,98652.10
2019-01-10T08:45:21.380Z,98644.67
2019-01-10T08:46:25.177Z,98646.30
2019-01-10T08:47:30.562Z,98645.44
2019-01-10T08:48:35.346Z,98648.72
2019-01-10T08:49:40.046Z,98649.73
2019-01-10T08:50:43.538Z,98647.28
2019-01-10T08:51:51.808Z,98645.41
2019-01-10T08:53:15.947Z,98646.23
2019-01-10T08:54:26.931Z,98646.23
2019-01-10T08:55:44.268Z,98647.38
2019-01-10T08:56:48.435Z,98649.48
2019-01-10T08:57:53.491Z,98654.59
2019-01-10T08:59:01.769Z,98660.72
2019-01-10T09:00:04.984Z,98655.12
2019-01-10T09:01:08.035Z,98657.38
2019-01-10T09:02:11.046Z,98659.47
2019-01-10T09:03:14.028Z,98663.73
2019-01-10T09:04:18.386Z,98654.13
2019-01-10T09:05:23.712Z,98653.53
2019-01-10T09:06:29.217Z,98654.67
2019-01-10T09:07:32.110Z,98654.10
2019-01-10T09:08:36.207Z,98660.26
2019-01-10T09:09:39.118Z,98658.41
2019-01-10T09:10:42.123Z,98659.81
2019-01-10T09:11:46.119Z,98658.21
2019-01-10T09:12:54.279Z,98658.19
2019-01-10T09:13:57.160Z,98658.19
2019-01-10T09:15:00.655Z,98654.67
2019-01-10T09:16:06.832Z,98652.25
2019-01-10T09:17:09.840Z,98658.98
2019-01-10T09:18:12.836Z,98648.48
2019-01-10T09:19:22.380Z,98659.30
2019-01-10T09:20:25.270Z,98659.30
2019-01-10T09:21:28.290Z,98662.03
2019-01-10T09:22:31.251Z,98662.03
2019-01-10T09:23:34.634Z,98663.58
2019-01-10T09:24:47.395Z,98660.92
2019-01-10T09:25:50.376Z,98660.92
2019-01-10T09:26:53.340Z,98662.55
2019-01-10T09:27:56.365Z,98667.22
2019-01-10T09:28:59.357Z,98666.99
2019-01-10T09:30:02.364Z,98672.95
2019-01-10T09:31:05.252Z,98672.95
2019-01-10T09:32:08.152Z,98670.33
2019-01-10T09:33:11.169Z,98674.09
2019-01-10T09:34:14.161Z,98678.37
2019-01-10T09:35:19.211Z,98678.37
2019-01-10T09:36:23.983Z,98678.37
2019-01-10T09:37:29.035Z,98680.25
2019-01-10T09:38:31.695Z,98686.73
2019-01-10T09:39:34.735Z,98686.73
2019-01-10T09:40:37.656Z,98682.16
2019-01-10T09:41:40.579Z,98682.16
2019-01-10T09:42:43.475Z,98687.30
2019-01-10T09:43:46.528Z,98685.95
2019-01-10T09:44:49.467Z,98686.55
2019-01-10T09:45:52.752Z,98684.67
2019-01-10T09:46:55.700Z,98687.33
2019-01-10T09:47:58.615Z,98689.09
2019-01-10T09:49:02.133Z,98678.45
2019-01-10T09:50:05.176Z,98686.88
2019-01-10T09:51:08.170Z,98694.88
2019-01-10T09:52:11.493Z,98692.88
2019-01-10T09:53:14.390Z,98693.40
2019-01-10T09:54:19.857Z,98704.66
2019-01-10T09:55:22.656Z,98705.84
2019-01-10T09:56:31.224Z,98706.13
2019-01-10T09:57:36.884Z,98716.53
2019-01-10T09:58:40.328Z,98708.52
2019-01-10T09:59:43.073Z,98712.48
2019-01-10T10:00:47.552Z,98711.94
2019-01-10T10:01:50.488Z,98717.55
2019-01-10T10:02:53.264Z,98722.94
2019-01-10T10:03:56.013Z,98716.62
2019-01-10T10:05:00.822Z,98723.83
2019-01-10T10:06:07.989Z,98723.20
2019-01-10T10:07:11.873Z,98729.80
2019-01-10T10:08:14.810Z,98728.37
2019-01-10T10:09:17.797Z,98728.37
2019-01-10T10:10:20.627Z,98731.08
2019-01-10T10:11:23.707Z,98728.56
2019-01-10T10:12:26.715Z,98728.36
2019-01-10T10:13:29.605Z,98729.93
2019-01-10T10:14:32.371Z,98728.36
2019-01-10T10:15:35.188Z,98733.34
2019-01-10T10:16:38.133Z,98730.89
2019-01-10T10:17:41.391Z,98730.89
2019-01-10T10:18:44.416Z,98729.39
2019-01-10T10:19:47.766Z,98732.67
2019-01-10T10:20:50.865Z,98730.31
2019-01-10T10:21:53.630Z,98736.18
2019-01-10T10:22:56.735Z,98732.77
2019-01-10T10:23:59.606Z,98729.43
2019-01-10T10:25:02.593Z,98735.84
2019-01-10T10:26:08.681Z,98735.84
2019-01-10T10:27:13.288Z,98729.63
2019-01-10T10:28:16.500Z,98732.91
2019-01-10T10:29:19.358Z,98732.17
2019-01-10T10:30:22.380Z,98729.48
2019-01-10T10:31:25.860Z,98733.19
2019-01-10T10:32:28.936Z,98730.77
2019-01-10T10:33:32.123Z,98730.77
2019-01-10T10:34:34.995Z,98728.88
2019-01-10T10:35:37.992Z,98728.88
2019-01-10T10:36:40.978Z,98734.02
2019-01-10T10:37:43.945Z,98732.22
2019-01-10T10:38:46.997Z,98730.05
2019-01-10T10:39:50.004Z,98725.86
2019-01-10T10:40:53.029Z,98725.86
2019-01-10T10:41:57.743Z,98730.66
2019-01-10T10:43:00.685Z,98730.66
2019-01-10T10:44:05.185Z,98729.20
2019-01-10T10:45:10.476Z,98725.23
2019-01-10T10:46:15.046Z,98731.05
2019-01-10T10:47:21.212Z,98733.98
2019-01-10T10:48:24.700Z,98732.62
2019-01-10T10:49:28.103Z,98732.62
2019-01-10T10:50:31.098Z,98732.20
2019-01-10T10:51:34.553Z,98731.30
2019-01-10T10:52:37.544Z,98735.37
2019-01-10T10:53:40.535Z,98734.52
2019-01-10T10:54:43.550Z,98733.41
2019-01-10T10:55:46.472Z,98735.58
2019-01-10T10:56:49.566Z,98722.30
2019-01-10T10:57:52.572Z,98722.30
2019-01-10T10:58:55.561Z,98720.37
2019-01-10T10:59:58.304Z,98730.80
2019-01-10T11:01:01.451Z,98726.78
2019-01-10T11:02:04.580Z,98729.64
2019-01-10T11:03:07.458Z,98728.84
2019-01-10T11:04:11.999Z,98730.73
2019-01-10T11:05:14.787Z,98733.16
2019-01-10T11:06:18.247Z,98722.48
2019-01-10T11:07:21.210Z,98731.35
2019-01-10T11:08:26.901Z,98731.06
2019-01-10T11:09:29.818Z,98731.06
2019-01-10T11:10:33.723Z,98729.23
2019-01-10T11:11:36.584Z,98729.23
2019-01-10T11:12:43.962Z,98729.54
2019-01-10T11:13:48.021Z,98727.94
2019-01-10T11:14:50.859Z,98723.71
2019-01-10T11:15:54.226Z,98723.71
2019-01-10T11:16:57.198Z,98726.19
2019-01-10T11:18:00.359Z,98723.35
2019-01-10T11:19:03.810Z,98728.53
2019-01-10T11:20:06.705Z,98719.41
2019-01-10T11:21:12.706Z,98719.41
2019-01-10T11:22:15.588Z,98727.05
2019-01-10T11:23:19.018Z,98722.86
2019-01-10T11:24:21.965Z,98722.86
2019-01-10T11:25:24.797Z,98720.23
2019-01-10T11:26:28.218Z,98720.23
2019-01-10T11:27:30.968Z,98721.67
2019-01-10T11:28:34.996Z,98719.33
2019-01-10T11:29:38.300Z,98720.98
2019-01-10T11:43:06.341Z,98712.19
2019-01-10T11:44:09.302Z,98715.82
2019-01-10T11:45:12.359Z,98715.78
2019-01-10T11:46:19.674Z,98715.78
2019-01-10T11:47:19.923Z,98710.67
2019-01-10T11:48:23.220Z,98720.06
2019-01-10T11:49:26.395Z,98720.06
2019-01-10T11:50:29.573Z,98707.44
2019-01-10T11:51:32.415Z,98708.05
2019-01-10T11:52:35.203Z,98714.80
2019-01-10T11:53:38.314Z,98714.80
2019-01-10T11:54:41.373Z,98710.45
2019-01-10T11:55:44.436Z,98716.08
2019-01-10T11:56:47.833Z,98717.08
2019-01-10T11:57:51.431Z,98709.56
2019-01-10T11:58:54.184Z,98709.56
2019-01-10T11:59:57.531Z,98717.64
2019-01-10T12:01:00.740Z,98717.64
2019-01-10T12:02:03.661Z,98707.72
2019-01-10T12:03:06.569Z,98707.69
2019-01-10T12:04:09.444Z,98712.71
2019-01-10T12:05:12.280Z,98712.20
2019-01-10T12:06:15.336Z,98712.20
2019-01-10T12:07:18.650Z,98700.41
2019-01-10T12:08:21.589Z,98707.70
2019-01-10T12:09:24.587Z,98707.70
2019-01-10T12:10:28.055Z,98708.06
2019-01-10T12:11:33.917Z,98701.61
2019-01-10T12:12:39.864Z,98694.45
2019-01-10T12:13:49.868Z,98704.31
2019-01-10T12:14:53.945Z,98704.31
2019-01-10T12:15:56.863Z,98699.84
2019-01-10T12:16:59.614Z,98698.22
2019-01-10T12:18:02.428Z,98699.21
2019-01-10T12:19:05.540Z,98699.21
2019-01-10T12:20:11.594Z,98693.95
2019-01-10T12:21:14.429Z,98690.27
2019-01-10T12:22:17.181Z,98692.14
2019-01-10T12:23:20.633Z,98686.74
2019-01-10T12:24:23.521Z,98686.59
2019-01-10T12:25:26.482Z,98690.50
2019-01-10T12:26:29.692Z,98687.42
2019-01-10T12:27:33.670Z,98682.87
2019-01-10T12:28:36.704Z,98679.05
2019-01-10T12:29:39.457Z,98680.94
2019-01-10T12:30:42.399Z,98670.65
2019-01-10T12:31:45.504Z,98680.58
2019-01-10T12:32:48.743Z,98680.58
2019-01-10T12:33:52.734Z,98677.08
2019-01-10T12:34:55.653Z,98674.91
2019-01-10T12:35:58.612Z,98674.91
2019-01-10T12:37:04.615Z,98672.52
2019-01-10T12:38:07.435Z,98674.53
2019-01-10T12:39:15.835Z,98677.53
2019-01-10T12:40:25.271Z,98680.36
2019-01-10T12:41:28.111Z,98678.06
2019-01-10T12:42:31.347Z,98676.53
2019-01-10T12:43:34.156Z,98666.34
2019-01-10T12:44:39.816Z,98672.31
2019-01-10T12:45:43.056Z,98671.00
2019-01-10T12:46:45.831Z,98671.02
2019-01-10T12:47:49.215Z,98669.34
2019-01-10T12:48:56.172Z,98671.98
2019-01-10T12:49:58.997Z,98669.86
2019-01-10T12:51:01.905Z,98668.00
2019-01-10T12:52:08.210Z,98669.89